Flight Track Log - Related Links

Times and Time Zones

All times are in EST time to prevent confusion due to time zone crossing. See the N354LQ flight status page for this flight to view local times or setup timezone preferences in your user account.


Time Position Orientation Groundspeed Altitude Reporting Facility
EST Latitude Longitude Course Direction KTS MPH feet Rate Location/Type
Sun 11:04:06 PM 36.8744 -119.7592 37° Northeast 243 280 7,500  Level Oakland Center
Sun 11:05:07 PM 36.8617 -119.6664 100° East 274 315 10,300 2,410 Climbing Oakland Center
Sun 11:06:08 PM 36.8467 -119.5542 99° East 333 383 12,400 2,164 Climbing Oakland Center
Sun 11:07:09 PM 36.8439 -119.4258 92° East 365 420 14,700 2,656 Climbing Oakland Center
Sun 11:08:00 PM 36.7485 -118.4273 107° East  Level FlightAware Approximate
Sun 11:08:10 PM 36.8411 -119.2925 91° East 381 438 17,800  Level Oakland Center
Sun 11:09:11 PM 36.8378 -119.1617 92° East 379 436 20,200 2,213 Climbing Oakland Center
Sun 11:10:12 PM 36.8256 -119.0208 96° East 406 467 22,300 2,066 Climbing Oakland Center
Sun 11:11:13 PM 36.8244 -118.8747 91° East 420 483 24,400 1,672 Climbing Oakland Center
Sun 11:12:14 PM 36.8186 -118.7261 93° East 426 490 25,700 1,426 Climbing Oakland Center
Sun 11:13:15 PM 36.8111 -118.5694 93° East 442 509 27,300 1,636 Climbing Oakland Center
Sun 11:14:26 PM 36.7967 -118.3497 95° East 460 529 29,300 1,727 Climbing Los Angeles Center
Sun 11:15:27 PM 36.7881 -118.1875 94° East 467 537 31,100 1,415 Climbing Los Angeles Center
Sun 11:16:29 PM 36.7806 -118.0253 93° East 469 540 32,200 1,415 Climbing Los Angeles Center
Sun 11:17:30 PM 36.7544 -117.8506 101° East 481 554 34,000 1,463 Climbing Los Angeles Center
Sun 11:18:32 PM 36.7097 -117.6978 110° East 475 547 35,200 919 Climbing Los Angeles Center
Sun 11:19:21 PM 36.6844 -117.5794 105° East 480 552 35,700 709 Climbing Oakland Center
Sun 11:20:22 PM 36.6422 -117.4133 108° East 497 572 36,500 787 Climbing Oakland Center
Sun 11:21:23 PM 36.6031 -117.2419 106° East 512 589 37,300 1,033 Climbing Oakland Center
Sun 11:22:24 PM 36.5528 -117.0403 107° East 512 589 38,600 1,131 Climbing Oakland Center
Sun 11:23:25 PM 36.5119 -116.8739 107° East 507 583 39,600 934 Climbing Oakland Center
Sun 11:24:26 PM 36.4717 -116.7106 107° East 500 575 40,500 652 Climbing Oakland Center
Sun 11:25:43 PM 36.4189 -116.4939 107° East 498 573 41,100 259 Climbing Los Angeles Center
Sun 11:26:45 PM 36.3761 -116.3267 108° East 506 582 41,100  Level Los Angeles Center
Sun 11:27:47 PM 36.3381 -116.1756 107° East 511 588 41,100  Level Los Angeles Center
Sun 11:28:48 PM 36.2856 -115.9722 108° East 515 593 41,100  Level Los Angeles Center
Sun 11:29:50 PM 36.2472 -115.8231 108° East 518 596 41,100  Level Los Angeles Center
Sun 11:30:51 PM 36.1958 -115.6236 108° East 520 598 41,100  Level Los Angeles Center
Sun 11:31:53 PM 36.1522 -115.4575 108° East 520 598 41,100  Level Los Angeles Center
Sun 11:32:54 PM 36.1536 -115.2822 89° East 519 597 41,100  Level Los Angeles Center
Sun 11:33:56 PM 36.1547 -115.1022 90° East 527 606 41,100  Level Los Angeles Center
Sun 11:34:57 PM 36.1567 -114.9231 89° East 524 603 41,100  Level Los Angeles Center
Sun 11:35:59 PM 36.1586 -114.7425 89° East 526 605 41,100  Level Los Angeles Center
Sun 11:37:00 PM 36.1603 -114.5278 89° East 521 600 41,100  Level Los Angeles Center
Sun 11:38:02 PM 36.1578 -114.3472 91° East 524 603 41,100  Level Los Angeles Center
Sun 11:39:03 PM 36.1606 -114.1664 89° East 526 605 41,100  Level Los Angeles Center
Sun 11:40:05 PM 36.1581 -113.9853 91° East 527 606 41,100  Level Los Angeles Center
Sun 11:41:06 PM 36.1581 -113.8031 90° East 529 609 41,100  Level Los Angeles Center
Sun 11:42:08 PM 36.1569 -113.6217 90° East 528 608 41,100  Level Los Angeles Center
Sun 11:43:10 PM 36.1567 -113.4406 91° East 528 608 41,100  Level Los Angeles Center
Sun 11:44:00 PM 36.1484 -113.3158 91° East  Level FlightAware Approximate
Sun 11:45:13 PM 36.1517 -113.0500 91° East 531 611 41,100  Level Los Angeles Center
Sun 11:46:14 PM 36.1250 -112.8725 100° East 530 610 41,100  Level Los Angeles Center
Sun 11:47:16 PM 36.1122 -112.6911 95° East 534 615 41,100  Level Los Angeles Center
Sun 11:48:17 PM 36.0917 -112.5133 98° East 527 606 41,100  Level Los Angeles Center
Sun 11:49:19 PM 36.0767 -112.3331 96° East 530 610 41,100  Level Los Angeles Center
Sun 11:50:32 PM 36.0531 -112.1239 98° East 539 620 41,100  Level Los Angeles Center
Sun 11:51:34 PM 36.0314 -111.9008 97° East 529 609 41,100  Level Los Angeles Center
Sun 11:52:35 PM 36.0125 -111.7197 97° East 533 613 41,100  Level Los Angeles Center
Sun 11:53:37 PM 35.9936 -111.5389 97° East 533 613 41,100  Level Los Angeles Center
Sun 11:54:08 PM 35.9822 -111.4331 98° East 533 613 41,100  Level Denver Center
Sun 11:55:09 PM 35.9622 -111.2544 98° East 530 610 41,100  Level Denver Center
Sun 11:56:10 PM 35.9422 -111.0733 98° East 533 613 41,100  Level Denver Center
Sun 11:57:11 PM 35.9222 -110.8942 98° East 530 610 41,100  Level Denver Center
Sun 11:58:12 PM 35.9019 -110.7139 98° East 532 612 41,100  Level Denver Center
Sun 11:59:13 PM 35.8800 -110.5367 99° East 527 606 41,100  Level Denver Center
Mon 12:00:14 AM 35.8606 -110.3589 98° East 526 605 41,100  Level Denver Center
Mon 12:01:15 AM 35.8383 -110.1814 99° East 526 605 41,100  Level Denver Center
Mon 12:02:11 AM 35.8164 -109.9956 98° East 525 604 41,100  Level Albuquerque Center
Mon 12:03:12 AM 35.7958 -109.8236 98° East 528 608 41,100  Level Albuquerque Center
Mon 12:04:13 AM 35.7753 -109.6517 98° East 530 610 41,100  Level Albuquerque Center
Mon 12:05:14 AM 35.7508 -109.4511 98° East 532 612 41,100  Level Albuquerque Center
Mon 12:06:14 AM 35.7283 -109.2811 99° East 531 611 41,100  Level Albuquerque Center
Mon 12:07:15 AM 35.7050 -109.0853 98° East 525 604 41,100  Level Albuquerque Center
Mon 12:08:16 AM 35.6814 -108.9181 100° East 524 603 41,100  Level Albuquerque Center
Mon 12:09:17 AM 35.6606 -108.7497 99° East 524 603 41,100  Level Albuquerque Center
Mon 12:10:18 AM 35.6342 -108.5528 99° East 526 605 41,100 -50 Level Albuquerque Center
Mon 12:11:18 AM 35.6125 -108.3828 99° East 527 606 41,000  Descending Albuquerque Center
Mon 12:12:19 AM 35.5900 -108.2136 99° East 528 608 41,100  Climbing Albuquerque Center
Mon 12:13:20 AM 35.5617 -108.0192 100° East 523 602 41,000  Descending Albuquerque Center
Mon 12:14:20 AM 35.5392 -107.8525 99° East 520 598 41,100 50 Climbing Albuquerque Center
Mon 12:15:21 AM 35.5142 -107.6858 100° East 520 598 41,100  Level Albuquerque Center
Mon 12:16:22 AM 35.4864 -107.4903 100° East 521 600 41,100  Level Albuquerque Center
Mon 12:17:23 AM 35.4631 -107.3244 100° East 519 597 41,100  Level Albuquerque Center
Mon 12:18:23 AM 35.4369 -107.1425 100° East 518 596 41,100 -50 Level Albuquerque Center
Mon 12:19:24 AM 35.4111 -106.9694 100° East 517 595 41,000  Descending Albuquerque Center
Mon 12:20:25 AM 35.3869 -106.7953 100° East 518 596 41,100 49 Climbing Albuquerque Center
Mon 12:21:26 AM 35.3553 -106.6044 101° East 528 608 41,100  Level Albuquerque Center
Mon 12:22:26 AM 35.3314 -106.4494 101° East 525 604 41,100 -50 Level Albuquerque Center
Mon 12:23:27 AM 35.3017 -106.2797 102° East 520 598 41,000 -49 Descending Albuquerque Center
Mon 12:24:28 AM 35.2714 -106.1111 102° East 515 593 41,000  Level Albuquerque Center
Mon 12:25:28 AM 35.2439 -105.9428 101° East 513 590 41,000  Level Albuquerque Center
Mon 12:26:29 AM 35.2139 -105.7742 102° East 513 590 41,000  Level Albuquerque Center
Mon 12:27:30 AM 35.1772 -105.5706 102° East 514 592 41,000 49 Level Albuquerque Center
Mon 12:28:31 AM 35.1514 -105.4225 102° East 514 592 41,100 50 Climbing Albuquerque Center
Mon 12:29:31 AM 35.1214 -105.2494 102° East 516 594 41,100  Level Albuquerque Center
Mon 12:30:32 AM 35.0853 -105.0508 102° East 512 589 41,100  Level Albuquerque Center
Mon 12:31:33 AM 35.0539 -104.8792 103° East 514 592 41,100  Level Albuquerque Center
Mon 12:32:33 AM 35.0236 -104.7081 102° East 514 592 41,100  Level Albuquerque Center
Mon 12:33:34 AM 34.9914 -104.5386 103° East 513 590 41,100  Level Albuquerque Center
Mon 12:34:35 AM 34.9600 -104.3678 103° East 516 594 41,100  Level Albuquerque Center
Mon 12:35:35 AM 34.9275 -104.1969 103° East 519 597 41,100  Level Albuquerque Center
Mon 12:36:36 AM 34.8969 -104.0253 102° East 520 598 41,100  Level Albuquerque Center
Mon 12:37:37 AM 34.8650 -103.8558 103° East 516 594 41,100  Level Albuquerque Center
Mon 12:38:37 AM 34.8308 -103.6869 104° East 513 590 41,100  Level Albuquerque Center
Mon 12:39:38 AM 34.7981 -103.5167 103° East 513 590 41,100  Level Albuquerque Center
Mon 12:40:38 AM 34.7650 -103.3450 103° East 517 595 41,100  Level Albuquerque Center
Mon 12:41:39 AM 34.7319 -103.1736 103° East 518 596 41,100  Level Albuquerque Center
Mon 12:42:40 AM 34.6969 -103.0019 104° East 519 597 41,100  Level Albuquerque Center
Mon 12:43:40 AM 34.6619 -102.8306 104° East 519 597 41,100  Level Albuquerque Center
Mon 12:44:41 AM 34.6281 -102.6586 103° East 520 598 41,100  Level Albuquerque Center
Mon 12:45:41 AM 34.5958 -102.4983 104° East 520 598 41,100  Level Albuquerque Center
Mon 12:46:42 AM 34.5603 -102.3278 104° East 524 603 41,100  Level Albuquerque Center
Mon 12:47:43 AM 34.5253 -102.1575 104° East 524 603 41,100  Level Albuquerque Center
Mon 12:48:43 AM 34.4897 -101.9864 104° East 527 606 41,100  Level Albuquerque Center
Mon 12:49:44 AM 34.4469 -101.7828 104° East 525 604 41,100  Level Albuquerque Center
Mon 12:50:44 AM 34.4097 -101.6111 105° East 528 608 41,100  Level Albuquerque Center
Mon 12:51:47 AM 34.3747 -101.4394 104° East 526 605 41,100  Level Fort Worth Center
Mon 12:52:47 AM 34.3389 -101.2681 104° East 527 606 41,100  Level Fort Worth Center
Mon 12:53:47 AM 34.3019 -101.0981 105° East 527 606 41,100  Level Fort Worth Center
Mon 12:54:47 AM 34.2650 -100.9286 105° East 525 604 41,100  Level Fort Worth Center
Mon 12:55:48 AM 34.2122 -100.7639 111° Southeast 528 608 41,100  Level Fort Worth Center
Mon 12:56:48 AM 34.1653 -100.5969 109° East 527 606 41,100  Level Fort Worth Center
Mon 12:57:48 AM 34.1150 -100.4325 110° East 526 605 41,100  Level Fort Worth Center
Mon 12:58:48 AM 34.0686 -100.2861 111° Southeast 527 606 41,100  Level Fort Worth Center
Mon 12:59:48 AM 34.0197 -100.1164 109° East 530 610 41,100  Level Fort Worth Center
Mon 01:00:48 AM 33.9681 -99.9497 110° East 530 610 41,100  Level Fort Worth Center
Mon 01:01:48 AM 33.9167 -99.7825 110° East 531 611 41,100  Level Fort Worth Center
Mon 01:02:49 AM 33.8667 -99.6147 110° East 531 611 41,100  Level Fort Worth Center
Mon 01:03:49 AM 33.8156 -99.4481 110° East 528 608 41,100  Level Fort Worth Center
Mon 01:04:49 AM 33.7644 -99.2858 111° Southeast 521 600 41,100 -450 Level Fort Worth Center
Mon 01:05:49 AM 33.7122 -99.1206 111° Southeast 525 604 40,200 -1,300 Descending Fort Worth Center
Mon 01:06:49 AM 33.6606 -98.9539 110° East 528 608 38,500 -2,050 Descending Fort Worth Center
Mon 01:07:49 AM 33.6058 -98.7906 112° Southeast 527 606 36,100 -2,826 Descending Fort Worth Center
Mon 01:08:50 AM 33.5572 -98.6353 111° Southeast 511 588 32,800 -3,223 Descending Fort Worth Center
Mon 01:09:50 AM 33.5008 -98.4519 110° East 524 603 29,600 -3,100 Descending Fort Worth Center
Mon 01:10:50 AM 33.4497 -98.2908 111° Southeast 503 579 26,600 -2,750 Descending Fort Worth Center
Mon 01:11:50 AM 33.4025 -98.1442 111° Southeast 489 563 24,100 -2,400 Descending Fort Worth Center
Mon 01:12:50 AM 33.3539 -98.0014 112° Southeast 474 545 21,800 -2,500 Descending Fort Worth Center
Mon 01:13:50 AM 33.3067 -97.8572 111° Southeast 461 531 19,100 -2,350 Descending Fort Worth Center
Mon 01:14:50 AM 33.2631 -97.7150 110° East 450 518 17,100 -1,879 Descending Fort Worth Center
Mon 01:15:29 AM 33.2333 -97.6167 110° East 409 471 16,000 -1,636 Descending Dallas / Fort Worth TRACON
Mon 01:16:29 AM 33.1833 -97.5167 121° Southeast 385 443 14,400 -1,950 Descending Dallas / Fort Worth TRACON
Mon 01:17:29 AM 33.1333 -97.4167 121° Southeast 372 428 12,100 -2,050 Descending Dallas / Fort Worth TRACON
Mon 01:18:29 AM 33.0667 -97.3000 124° Southeast 349 402 10,300 -1,800 Descending Dallas / Fort Worth TRACON
Mon 01:19:29 AM 33.0333 -97.2167 115° Southeast 338 389 8,500 -1,150 Descending Dallas / Fort Worth TRACON
Mon 01:20:29 AM 32.9833 -97.1167 121° Southeast 286 329 8,000 -250 Descending Dallas / Fort Worth TRACON
Mon 01:21:29 AM 32.9500 -97.0500 121° Southeast 245 282 8,000 -350 Level Dallas / Fort Worth TRACON
Mon 01:22:29 AM 32.9167 -96.9833 121° Southeast 245 282 7,300 -1,250 Descending Dallas / Fort Worth TRACON
Mon 01:23:29 AM 32.8833 -96.9000 115° Southeast 255 293 5,500 -1,750 Descending Dallas / Fort Worth TRACON
Mon 01:24:29 AM 32.8500 -96.8333 121° Southeast 240 276 3,800 -1,450 Descending Dallas / Fort Worth TRACON
Mon 01:25:29 AM 32.8333 -96.7667 107° East 204 235 2,600 -700 Descending Dallas / Fort Worth TRACON
Mon 01:26:29 AM 32.8667 -96.8000 320° Northwest 151 174 2,400 -300 Descending Dallas / Fort Worth TRACON
Mon 01:27:29 AM 32.9000 -96.8000 360° North 124 143 2,000 -600 Descending Dallas / Fort Worth TRACON
Mon 01:28:29 AM 32.9333 -96.8167 337° Northwest 118 136 1,200 -800 Descending Dallas / Fort Worth TRACON

Login

Don't have an account? Register now (free) for customized features, flight alerts, and more!